createdAt,value
2018-09-17T00:00:31.701Z,3.93
2018-09-17T00:02:59.844Z,3.07
2018-09-17T00:05:27.966Z,3.37
2018-09-17T00:07:56.128Z,3.30
2018-09-17T00:10:24.352Z,4.83
2018-09-17T00:12:52.463Z,4.10
2018-09-17T00:15:20.535Z,3.93
2018-09-17T00:17:48.638Z,5.60
2018-09-17T00:20:16.751Z,3.60
2018-09-17T00:22:44.851Z,4.10
2018-09-17T00:25:12.963Z,4.20
2018-09-17T00:27:41.135Z,4.20
2018-09-17T00:30:09.204Z,3.60
2018-09-17T00:32:37.292Z,3.50
2018-09-17T00:35:05.358Z,3.60
2018-09-17T00:37:33.540Z,3.97
2018-09-17T00:40:01.609Z,3.93
2018-09-17T00:42:29.675Z,3.80
2018-09-17T00:44:57.756Z,3.70
2018-09-17T00:47:25.848Z,3.87
2018-09-17T00:49:53.939Z,3.70
2018-09-17T00:52:22.007Z,4.00
2018-09-17T00:54:50.071Z,3.10
2018-09-17T00:57:18.147Z,3.60
2018-09-17T00:59:46.215Z,3.43
2018-09-17T01:02:14.301Z,4.30
2018-09-17T01:04:42.394Z,3.87
2018-09-17T01:07:10.468Z,4.67
2018-09-17T01:09:41.554Z,4.23
2018-09-17T01:12:09.838Z,3.57
2018-09-17T01:14:37.924Z,4.20
2018-09-17T01:17:06.012Z,3.77
2018-09-17T01:19:34.098Z,3.77
2018-09-17T01:22:02.260Z,3.60
2018-09-17T01:24:30.336Z,3.40
2018-09-17T01:26:58.415Z,3.40
2018-09-17T01:29:26.491Z,3.93
2018-09-17T01:31:54.568Z,2.93
2018-09-17T01:34:22.654Z,4.53
2018-09-17T01:36:50.739Z,3.87
2018-09-17T01:39:18.913Z,4.03
2018-09-17T01:41:46.990Z,3.97
2018-09-17T01:44:15.136Z,3.87
2018-09-17T01:46:43.251Z,3.43
2018-09-17T01:49:11.339Z,3.40
2018-09-17T01:51:39.704Z,3.70
2018-09-17T01:54:07.841Z,3.73
2018-09-17T01:56:35.924Z,3.90
2018-09-17T01:59:04.110Z,4.67
2018-09-17T02:01:32.184Z,3.50
2018-09-17T02:04:00.272Z,4.07
2018-09-17T02:06:28.370Z,3.77
2018-09-17T02:08:56.473Z,3.70
2018-09-17T02:11:24.504Z,4.47
2018-09-17T02:13:52.594Z,3.77
2018-09-17T02:16:20.733Z,3.90
2018-09-17T02:18:48.799Z,3.87
2018-09-17T02:21:16.918Z,4.23
2018-09-17T02:23:45.001Z,3.70
2018-09-17T02:26:13.211Z,3.83
2018-09-17T02:28:41.291Z,3.57
2018-09-17T02:31:09.427Z,3.77
2018-09-17T02:33:37.498Z,3.87
2018-09-17T02:36:05.702Z,4.00
2018-09-17T02:38:33.779Z,4.17
2018-09-17T02:41:02.023Z,3.83
2018-09-17T02:43:30.109Z,3.77
2018-09-17T02:45:58.207Z,3.73
2018-09-17T02:48:26.279Z,3.83
2018-09-17T02:50:54.369Z,3.30
2018-09-17T02:53:22.485Z,3.80
2018-09-17T02:55:50.572Z,4.37
2018-09-17T02:58:18.730Z,3.80
2018-09-17T03:00:46.898Z,3.97
2018-09-17T03:03:14.969Z,3.90
2018-09-17T03:05:43.076Z,4.50
2018-09-17T03:08:11.203Z,3.50
2018-09-17T03:10:39.271Z,4.20
2018-09-17T03:13:07.343Z,4.07
2018-09-17T03:15:49.079Z,4.37
2018-09-17T03:18:22.315Z,4.27
2018-09-17T03:20:50.437Z,4.50
2018-09-17T03:23:18.642Z,4.10
2018-09-17T03:25:46.707Z,3.47
2018-09-17T03:28:14.808Z,3.97
2018-09-17T03:30:42.904Z,4.08
2018-09-17T03:33:10.988Z,4.07
2018-09-17T03:35:39.046Z,4.63
2018-09-17T03:38:23.758Z,4.60
2018-09-17T03:40:51.856Z,4.80
2018-09-17T03:43:19.950Z,4.57
2018-09-17T03:45:48.036Z,3.93
2018-09-17T03:48:16.104Z,4.13
2018-09-17T03:50:44.163Z,4.13
2018-09-17T03:53:12.260Z,4.50
2018-09-17T03:55:40.415Z,4.27
2018-09-17T03:58:08.633Z,4.40
2018-09-17T04:00:36.751Z,4.63
2018-09-17T04:03:04.827Z,4.00
2018-09-17T04:05:32.986Z,4.20
2018-09-17T04:08:01.043Z,3.50
2018-09-17T04:10:29.120Z,4.10
2018-09-17T04:12:57.169Z,4.53
2018-09-17T04:15:25.335Z,3.70
2018-09-17T04:17:53.403Z,4.27
2018-09-17T04:20:21.560Z,3.83
2018-09-17T04:22:49.681Z,4.07
2018-09-17T04:25:17.783Z,3.90
2018-09-17T04:27:45.872Z,4.57
2018-09-17T04:30:14.006Z,3.60
2018-09-17T04:32:42.088Z,4.13
2018-09-17T04:35:10.171Z,4.17
2018-09-17T04:37:39.322Z,4.50
2018-09-17T04:40:07.807Z,5.27
2018-09-17T04:42:36.779Z,4.20
2018-09-17T04:45:04.848Z,4.20
2018-09-17T04:47:33.333Z,4.53
2018-09-17T04:50:01.403Z,3.97
2018-09-17T04:52:29.755Z,4.83
2018-09-17T04:54:57.825Z,5.27
2018-09-17T04:57:25.977Z,4.00
2018-09-17T04:59:54.465Z,4.00
2018-09-17T05:02:22.548Z,4.40
2018-09-17T05:04:50.641Z,4.70
2018-09-17T05:07:19.206Z,4.83
2018-09-17T05:09:47.235Z,4.43
2018-09-17T05:12:15.327Z,4.47
2018-09-17T05:14:43.415Z,4.90
2018-09-17T05:17:11.462Z,4.73
2018-09-17T05:19:39.523Z,3.97
2018-09-17T05:22:07.585Z,4.20
2018-09-17T05:24:35.706Z,4.50
2018-09-17T05:27:05.083Z,4.60
2018-09-17T05:29:33.447Z,4.57
2018-09-17T05:32:01.981Z,5.90
2018-09-17T05:34:30.359Z,4.40
2018-09-17T05:36:59.067Z,4.90
2018-09-17T05:39:28.499Z,5.50
2018-09-17T05:41:56.685Z,4.87
2018-09-17T05:44:26.019Z,3.87
2018-09-17T05:46:54.516Z,5.47
2018-09-17T05:49:22.893Z,4.70
2018-09-17T05:51:51.737Z,4.53
2018-09-17T05:54:20.076Z,3.90
2018-09-17T05:56:48.524Z,4.33
2018-09-17T05:59:47.600Z,5.10
2018-09-17T06:02:16.113Z,4.37
2018-09-17T06:04:44.247Z,4.93
2018-09-17T06:07:14.384Z,4.23
2018-09-17T06:09:42.842Z,4.23
2018-09-17T06:12:11.509Z,4.23
2018-09-17T06:14:40.471Z,4.93
2018-09-17T06:17:08.634Z,4.90
2018-09-17T06:19:38.162Z,3.90
2018-09-17T06:22:06.686Z,4.30
2018-09-17T06:24:34.958Z,4.20
2018-09-17T06:27:03.424Z,4.87
2018-09-17T06:29:32.006Z,4.87
2018-09-17T06:32:00.760Z,5.47
2018-09-17T06:34:29.188Z,5.00
2018-09-17T06:39:26.099Z,5.37
2018-09-17T06:41:54.380Z,5.93
2018-09-17T06:44:22.700Z,5.67
2018-09-17T06:46:51.581Z,5.70
2018-09-17T06:49:19.997Z,6.30
2018-09-17T06:51:48.331Z,6.53
2018-09-17T06:54:16.928Z,7.03
2018-09-17T06:56:45.305Z,6.70
2018-09-17T06:59:13.705Z,7.00
2018-09-17T07:01:42.119Z,7.73
2018-09-17T07:04:12.876Z,7.60
2018-09-17T07:06:41.527Z,8.50
2018-09-17T07:09:11.595Z,8.30
2018-09-17T07:11:40.126Z,8.60
2018-09-17T07:14:08.600Z,8.17
2018-09-17T07:16:36.647Z,8.80
2018-09-17T07:19:04.744Z,8.57
2018-09-17T07:21:33.164Z,10.10
2018-09-17T07:24:01.280Z,9.37
2018-09-17T07:26:29.504Z,8.67
2018-09-17T07:28:57.800Z,9.20
2018-09-17T07:31:25.871Z,9.33
2018-09-17T07:33:53.957Z,8.60
2018-09-17T07:36:22.201Z,9.20
2018-09-17T07:38:50.390Z,9.53
2018-09-17T07:41:18.564Z,9.40
2018-09-17T07:43:46.669Z,9.83
2018-09-17T07:46:14.765Z,9.03
2018-09-17T07:48:42.944Z,9.47
2018-09-17T07:51:11.003Z,10.10
2018-09-17T07:53:39.111Z,9.97
2018-09-17T07:56:07.186Z,9.77
2018-09-17T07:58:35.291Z,10.10
2018-09-17T08:01:03.380Z,9.37
2018-09-17T08:03:31.455Z,10.27
2018-09-17T08:05:59.573Z,12.20
2018-09-17T08:08:27.643Z,9.70
2018-09-17T08:10:55.724Z,8.57
2018-09-17T08:13:23.891Z,9.20
2018-09-17T08:15:51.979Z,10.93
2018-09-17T08:18:20.150Z,9.80
2018-09-17T08:20:48.228Z,9.90
2018-09-17T08:23:16.305Z,9.90
2018-09-17T08:25:44.416Z,10.10
2018-09-17T08:28:12.477Z,8.77
2018-09-17T08:30:40.602Z,8.40
2018-09-17T08:33:08.667Z,7.83
2018-09-17T08:35:36.735Z,8.10
2018-09-17T08:38:04.884Z,8.60
2018-09-17T08:40:32.924Z,8.10
2018-09-17T08:43:01.002Z,7.67
2018-09-17T08:45:29.121Z,7.90
2018-09-17T08:47:57.206Z,7.90
2018-09-17T08:50:25.303Z,8.00
2018-09-17T08:52:53.402Z,8.10
2018-09-17T08:55:26.929Z,9.40
2018-09-17T08:58:01.183Z,8.60
2018-09-17T09:00:34.831Z,8.07
2018-09-17T09:03:08.212Z,7.90
2018-09-17T09:05:40.356Z,7.97
2018-09-17T09:08:08.998Z,8.50
2018-09-17T09:10:42.983Z,8.80
2018-09-17T09:14:14.699Z,8.20
2018-09-17T09:16:42.809Z,7.93
2018-09-17T09:19:10.916Z,7.87
2018-09-17T09:21:39.032Z,7.17
2018-09-17T09:24:07.124Z,7.47
2018-09-17T09:26:35.229Z,7.60
2018-09-17T09:29:03.320Z,7.23
2018-09-17T09:31:31.453Z,6.90
2018-09-17T09:33:59.636Z,7.20
2018-09-17T09:36:27.740Z,5.90
2018-09-17T09:38:55.813Z,5.03
2018-09-17T09:41:23.895Z,5.93
2018-09-17T09:43:51.969Z,4.80
2018-09-17T09:46:20.134Z,5.83
2018-09-17T09:48:48.204Z,5.60
2018-09-17T09:51:16.303Z,6.07
2018-09-17T09:53:44.371Z,6.30
2018-09-17T09:56:12.507Z,5.67
2018-09-17T09:58:40.590Z,5.70
2018-09-17T10:01:14.000Z,5.50
2018-09-17T10:03:44.920Z,5.70
2018-09-17T10:06:14.716Z,5.40
2018-09-17T10:08:48.174Z,6.60
2018-09-17T10:11:21.509Z,4.83
2018-09-17T10:13:54.962Z,4.63
2018-09-17T10:16:23.100Z,5.30
2018-09-17T10:18:56.479Z,4.70
2018-09-17T10:21:24.846Z,4.80
2018-09-17T10:23:52.895Z,4.33
2018-09-17T10:26:20.951Z,4.23
2018-09-17T10:28:49.015Z,4.30
2018-09-17T10:31:17.098Z,4.43
2018-09-17T10:33:51.784Z,4.57
2018-09-17T10:36:19.907Z,3.63
2018-09-17T10:38:47.978Z,4.03
2018-09-17T10:41:16.055Z,3.80
2018-09-17T10:43:50.761Z,3.30
2018-09-17T10:46:18.881Z,3.93
2018-09-17T10:48:46.960Z,4.17
2018-09-17T10:51:15.031Z,3.70
2018-09-17T10:53:43.157Z,4.20
2018-09-17T10:56:11.184Z,3.87
2018-09-17T10:58:39.337Z,4.63
2018-09-17T11:01:07.435Z,3.90
2018-09-17T11:03:35.524Z,4.33
2018-09-17T11:06:03.619Z,4.13
2018-09-17T11:08:31.700Z,3.90
2018-09-17T11:10:59.818Z,3.47
2018-09-17T11:13:27.924Z,3.80
2018-09-17T11:15:56.017Z,3.93
2018-09-17T11:18:24.176Z,3.20
2018-09-17T11:20:52.259Z,3.73
2018-09-17T11:23:20.329Z,3.13
2018-09-17T11:25:48.416Z,3.40
2018-09-17T11:28:16.486Z,3.30
2018-09-17T11:30:44.579Z,3.23
2018-09-17T11:33:13.077Z,3.47
2018-09-17T11:35:41.181Z,3.57
2018-09-17T11:38:09.757Z,3.20
2018-09-17T11:40:37.870Z,4.00
2018-09-17T11:43:06.005Z,3.57
2018-09-17T11:45:34.135Z,3.10
2018-09-17T11:48:02.204Z,3.50
2018-09-17T11:50:30.744Z,3.37
2018-09-17T11:52:58.822Z,3.13
2018-09-17T11:55:26.900Z,4.00
2018-09-17T11:57:54.976Z,3.33
2018-09-17T12:00:28.510Z,4.67
2018-09-17T12:03:01.828Z,3.60
2018-09-17T12:05:35.300Z,3.67
2018-09-17T12:08:07.618Z,3.00
2018-09-17T12:10:35.779Z,4.00
2018-09-17T12:13:03.856Z,3.30
2018-09-17T12:15:31.935Z,3.90
2018-09-17T12:18:00.004Z,3.00
2018-09-17T12:20:29.091Z,3.63
2018-09-17T12:22:57.174Z,3.60
2018-09-17T12:25:25.239Z,3.30
2018-09-17T12:27:53.300Z,3.60
2018-09-17T12:30:21.387Z,3.30
2018-09-17T12:32:49.517Z,3.10
2018-09-17T12:35:17.628Z,2.83
2018-09-17T12:37:46.581Z,3.30
2018-09-17T12:40:14.891Z,3.27
2018-09-17T12:42:43.044Z,3.03
2018-09-17T12:45:11.305Z,2.77
2018-09-17T12:47:39.379Z,3.57
2018-09-17T12:50:07.540Z,3.33
2018-09-17T12:52:35.615Z,3.10
2018-09-17T12:55:03.693Z,2.73
2018-09-17T12:57:31.781Z,2.80
2018-09-17T12:59:59.889Z,3.77
2018-09-17T13:02:27.958Z,2.60
2018-09-17T13:04:56.073Z,2.80
2018-09-17T13:07:24.192Z,2.93
2018-09-17T13:09:52.299Z,3.10
2018-09-17T13:12:20.435Z,2.73
2018-09-17T13:14:48.563Z,2.53
2018-09-17T13:17:16.627Z,3.07
2018-09-17T13:19:44.892Z,3.20
2018-09-17T13:22:13.007Z,2.40
2018-09-17T13:24:41.113Z,2.70
2018-09-17T13:27:10.229Z,2.87
2018-09-17T13:29:38.312Z,3.27
2018-09-17T13:32:06.520Z,2.73
2018-09-17T13:34:34.512Z,2.80
2018-09-17T13:37:02.660Z,3.00
2018-09-17T13:39:30.932Z,2.87
2018-09-17T13:41:59.042Z,2.53
2018-09-17T13:44:27.165Z,2.70
2018-09-17T13:46:55.242Z,3.00
2018-09-17T13:49:23.374Z,3.03
2018-09-17T13:51:51.536Z,2.30
2018-09-17T13:54:19.655Z,2.80
2018-09-17T13:56:47.714Z,2.80
2018-09-17T13:59:15.922Z,2.93
2018-09-17T14:01:44.057Z,3.00
2018-09-17T14:04:12.709Z,2.87
2018-09-17T14:07:20.987Z,2.53
2018-09-17T14:09:49.462Z,2.43
2018-09-17T14:12:17.805Z,2.47
2018-09-17T14:14:47.040Z,2.50
2018-09-17T14:17:15.303Z,2.50
2018-09-17T14:19:43.677Z,2.40
2018-09-17T14:22:11.942Z,2.60
2018-09-17T14:24:40.161Z,2.57
2018-09-17T14:27:08.451Z,2.57
2018-09-17T14:29:36.717Z,2.10
2018-09-17T14:32:10.322Z,2.50
2018-09-17T14:34:38.676Z,2.43
2018-09-17T14:37:06.905Z,2.20
2018-09-17T14:39:35.244Z,2.10
2018-09-17T14:42:03.662Z,2.37
2018-09-17T14:44:31.888Z,2.57
2018-09-17T14:47:00.243Z,2.10
2018-09-17T14:49:28.866Z,2.60
2018-09-17T14:51:57.827Z,2.20
2018-09-17T14:54:26.453Z,1.70
2018-09-17T14:56:54.557Z,2.33
2018-09-17T14:59:22.869Z,2.40
2018-09-17T15:01:51.269Z,2.30
2018-09-17T15:04:19.588Z,2.03
2018-09-17T15:06:48.686Z,2.30
2018-09-17T15:09:16.767Z,2.87
2018-09-17T15:11:44.848Z,3.57
2018-09-17T15:14:13.513Z,2.50
2018-09-17T15:16:41.635Z,2.23
2018-09-17T15:19:09.727Z,2.77
2018-09-17T15:21:37.838Z,2.60
2018-09-17T15:24:06.110Z,1.83
2018-09-17T15:26:34.143Z,2.40
2018-09-17T15:29:02.234Z,2.20
2018-09-17T15:31:30.325Z,2.13
2018-09-17T15:33:58.563Z,2.40
2018-09-17T15:36:26.556Z,2.80
2018-09-17T15:38:54.652Z,2.20
2018-09-17T15:41:22.935Z,2.10
2018-09-17T15:43:51.047Z,1.80
2018-09-17T15:46:19.152Z,1.90
2018-09-17T15:48:47.249Z,2.10
2018-09-17T15:51:15.306Z,2.10
2018-09-17T15:53:43.445Z,2.00
2018-09-17T15:56:11.586Z,4.07
2018-09-17T15:58:39.671Z,2.10
2018-09-17T16:01:08.051Z,1.70
2018-09-17T16:03:36.293Z,2.20
2018-09-17T16:06:04.376Z,1.80
2018-09-17T16:08:32.469Z,2.27
2018-09-17T16:11:00.571Z,2.10
2018-09-17T16:13:28.699Z,2.43
2018-09-17T16:15:56.828Z,1.80
2018-09-17T16:18:24.961Z,2.77
2018-09-17T16:20:53.059Z,2.40
2018-09-17T16:23:21.132Z,2.17
2018-09-17T16:25:49.286Z,1.80
2018-09-17T16:28:17.492Z,2.00
2018-09-17T16:30:45.635Z,2.17
2018-09-17T16:33:13.908Z,2.13
2018-09-17T16:35:42.232Z,2.50
2018-09-17T16:38:29.109Z,2.40
2018-09-17T16:40:57.431Z,2.83
2018-09-17T16:43:25.744Z,2.67
2018-09-17T16:45:54.024Z,2.83
2018-09-17T16:48:22.247Z,2.80
2018-09-17T16:50:50.475Z,2.17
2018-09-17T16:53:18.745Z,2.70
2018-09-17T16:55:46.904Z,2.70
2018-09-17T16:58:15.127Z,2.40
2018-09-17T17:00:43.364Z,2.60
2018-09-17T17:03:12.584Z,2.70
2018-09-17T17:05:51.848Z,2.07
2018-09-17T17:08:20.124Z,2.80
2018-09-17T17:10:48.439Z,2.10
2018-09-17T17:16:10.631Z,2.30
2018-09-17T17:18:38.772Z,2.13
2018-09-17T17:21:06.790Z,2.63
2018-09-17T17:23:34.893Z,1.93
2018-09-17T17:26:03.023Z,2.30
2018-09-17T17:28:31.118Z,2.40
2018-09-17T17:30:59.203Z,1.70
2018-09-17T17:33:27.291Z,2.00
2018-09-17T17:35:55.399Z,2.33
2018-09-17T17:38:23.506Z,2.77
2018-09-17T17:40:51.645Z,2.47
2018-09-17T17:43:19.686Z,2.43
2018-09-17T17:45:47.794Z,2.40
2018-09-17T17:48:16.229Z,2.80
2018-09-17T17:50:44.485Z,2.90
2018-09-17T17:53:13.024Z,2.37
2018-09-17T17:55:41.229Z,2.97
2018-09-17T17:58:09.471Z,2.60
2018-09-17T18:00:38.279Z,3.77
2018-09-17T18:03:06.502Z,2.23
2018-09-17T18:05:34.784Z,2.17
2018-09-17T18:08:02.942Z,2.70
2018-09-17T18:10:31.329Z,3.10
2018-09-17T18:12:59.546Z,2.70
2018-09-17T18:15:27.811Z,2.27
2018-09-17T18:17:56.028Z,2.40
2018-09-17T18:20:24.272Z,3.17
2018-09-17T18:22:52.629Z,2.70
2018-09-17T18:25:21.862Z,2.60
2018-09-17T18:27:50.334Z,2.40
2018-09-17T18:30:18.674Z,2.47
2018-09-17T18:32:47.701Z,2.70
2018-09-17T18:35:15.956Z,3.20
2018-09-17T18:37:44.373Z,2.67
2018-09-17T18:40:12.532Z,2.67
2018-09-17T18:42:40.805Z,2.90
2018-09-17T18:45:09.168Z,2.90
2018-09-17T18:47:37.353Z,3.00
2018-09-17T18:50:05.833Z,3.13
2018-09-17T18:52:34.831Z,2.73
2018-09-17T18:55:03.060Z,2.70
2018-09-17T18:57:31.262Z,3.40
2018-09-17T18:59:59.550Z,3.40
2018-09-17T19:02:27.672Z,3.23
2018-09-17T19:04:55.923Z,3.87
2018-09-17T19:07:24.213Z,3.70
2018-09-17T19:09:52.465Z,2.73
2018-09-17T19:12:21.454Z,3.57
2018-09-17T19:14:54.863Z,3.80
2018-09-17T19:17:28.357Z,2.80
2018-09-17T19:19:56.701Z,2.70
2018-09-17T19:22:30.320Z,3.40
2018-09-17T19:24:58.508Z,3.50
2018-09-17T19:27:31.819Z,3.53
2018-09-17T19:30:00.114Z,3.70
2018-09-17T19:32:28.877Z,3.30
2018-09-17T19:34:57.473Z,3.40
2018-09-17T19:37:30.945Z,3.40
2018-09-17T19:40:15.114Z,3.37
2018-09-17T19:42:45.906Z,4.13
2018-09-17T19:45:20.534Z,3.60
2018-09-17T19:47:49.463Z,3.93
2018-09-17T19:50:23.097Z,3.50
2018-09-17T19:52:51.312Z,3.17
2018-09-17T19:55:19.482Z,3.67
2018-09-17T19:57:53.135Z,3.70
2018-09-17T20:00:21.449Z,3.90
2018-09-17T20:02:49.997Z,3.60
2018-09-17T20:05:23.650Z,4.17
2018-09-17T20:07:51.965Z,4.20
2018-09-17T20:10:20.407Z,3.90
2018-09-17T20:12:48.591Z,3.53
2018-09-17T20:15:17.259Z,3.97
2018-09-17T20:17:45.517Z,3.80
2018-09-17T20:20:13.587Z,3.50
2018-09-17T20:22:41.667Z,3.67
2018-09-17T20:25:10.001Z,3.87
2018-09-17T20:27:38.278Z,3.33
2018-09-17T20:30:06.817Z,3.47
2018-09-17T20:32:35.176Z,3.57
2018-09-17T20:35:03.438Z,3.80
2018-09-17T20:37:31.696Z,3.77
2018-09-17T20:40:00.076Z,4.83
2018-09-17T20:42:28.306Z,3.40
2018-09-17T20:44:57.421Z,3.53
2018-09-17T20:47:29.957Z,3.20
2018-09-17T20:49:58.243Z,3.50
2018-09-17T20:52:27.031Z,3.80
2018-09-17T20:54:57.287Z,3.50
2018-09-17T20:57:26.269Z,3.30
2018-09-17T20:59:55.242Z,3.50
2018-09-17T21:02:23.533Z,2.93
2018-09-17T21:04:51.786Z,3.27
2018-09-17T21:07:20.063Z,3.10
2018-09-17T21:09:48.175Z,3.70
2018-09-17T21:12:16.455Z,3.90
2018-09-17T21:14:44.864Z,3.40
2018-09-17T21:17:13.075Z,3.00
2018-09-17T21:19:41.405Z,4.10
2018-09-17T21:22:09.797Z,3.90
2018-09-17T21:24:38.001Z,3.40
2018-09-17T21:27:06.245Z,4.93
2018-09-17T21:29:34.772Z,3.37
2018-09-17T21:32:03.519Z,3.60
2018-09-17T21:34:31.786Z,4.27
2018-09-17T21:39:52.721Z,3.40
2018-09-17T21:42:20.882Z,4.10
2018-09-17T21:44:48.974Z,3.87
2018-09-17T21:47:17.060Z,3.87
2018-09-17T21:49:45.121Z,4.30
2018-09-17T21:52:13.192Z,4.10
2018-09-17T21:54:41.272Z,4.00
2018-09-17T21:57:09.352Z,4.00
2018-09-17T21:59:37.431Z,4.00
2018-09-17T22:02:05.532Z,3.90
2018-09-17T22:04:33.647Z,3.90
2018-09-17T22:07:02.057Z,3.90
2018-09-17T22:09:31.476Z,3.30
2018-09-17T22:11:59.661Z,4.40
2018-09-17T22:14:27.904Z,4.67
2018-09-17T22:16:56.088Z,4.87
2018-09-17T22:19:24.356Z,7.20
2018-09-17T22:21:52.615Z,7.67
2018-09-17T22:24:20.899Z,5.40
2018-09-17T22:26:49.150Z,3.90
2018-09-17T22:29:17.503Z,4.10
2018-09-17T22:31:45.921Z,4.70
2018-09-17T22:34:14.188Z,4.23
2018-09-17T22:36:42.493Z,4.40
2018-09-17T22:39:11.727Z,3.50
2018-09-17T22:41:40.817Z,4.60
2018-09-17T22:44:09.185Z,4.10
2018-09-17T22:46:37.280Z,4.40
2018-09-17T22:49:05.382Z,3.80
2018-09-17T22:51:33.454Z,5.43
2018-09-17T22:54:01.528Z,4.07
2018-09-17T22:56:29.620Z,4.70
2018-09-17T22:58:57.683Z,4.03
2018-09-17T23:01:25.762Z,4.20
2018-09-17T23:03:53.860Z,5.10
2018-09-17T23:06:22.000Z,4.20
2018-09-17T23:08:50.060Z,4.87
2018-09-17T23:11:18.135Z,4.80
2018-09-17T23:13:46.226Z,6.10
2018-09-17T23:16:14.357Z,4.80
2018-09-17T23:18:42.418Z,4.90
2018-09-17T23:21:10.535Z,4.90
2018-09-17T23:23:38.808Z,4.40
2018-09-17T23:26:07.031Z,3.93
2018-09-17T23:28:35.100Z,4.77
2018-09-17T23:31:03.264Z,5.80
2018-09-17T23:33:31.286Z,4.50
2018-09-17T23:35:59.337Z,5.10
2018-09-17T23:38:27.456Z,4.30
2018-09-17T23:40:55.525Z,4.70
2018-09-17T23:43:23.598Z,5.20
2018-09-17T23:45:51.668Z,5.07
2018-09-17T23:48:19.740Z,5.23
2018-09-17T23:50:47.847Z,5.30
2018-09-17T23:53:15.945Z,5.10
2018-09-17T23:55:44.013Z,5.57
2018-09-17T23:58:12.118Z,4.83
